Time;durP1;ratioP1;P1;durP2;ratioP2;P2;SDS_P1;SDS_P2;PMS_P1;PMS_P2;Temp;Humidity;BMP_temperature;BMP_pressure;BME280_temperature;BME280_humidity;BME280_pressure;Samples;Min_cycle;Max_cycle;Signal;HPM_P1;HPM_P2
2021/11/08 00:00:29;;;;;;;19.52;16.45;;;;;;;8.73;85.92;99403.21;1763520;80;21378;-76
2021/11/08 00:02:59;;;;;;;24.57;19.60;;;;;;;8.73;85.71;99401.88;1747776;81;20924;-78
2021/11/08 00:05:26;;;;;;;22.13;18.20;;;;;;;8.67;85.72;99388.12;1788711;80;20917;-78
2021/11/08 00:08:00;;;;;;;23.65;18.92;;;;;;;8.62;85.72;99388.05;1769914;80;21461;-75
2021/11/08 00:10:30;;;;;;;24.37;19.70;;;;;;;8.60;85.78;99385.60;1769715;80;21087;-72
2021/11/08 00:12:58;;;;;;;24.45;18.60;;;;;;;8.62;85.92;99380.01;1794754;79;22043;-77
2021/11/08 00:15:44;;;;;;;21.37;19.05;;;;;;;8.64;85.91;99384.05;1802246;79;20997;-75
2021/11/08 00:18:06;;;;;;;19.10;16.37;;;;;;;8.68;85.97;99377.70;1767671;80;21557;-73
2021/11/08 00:20:43;;;;;;;22.60;17.67;;;;;;;8.71;85.78;99377.19;1782736;80;20971;-71
2021/11/08 00:23:08;;;;;;;22.25;19.12;;;;;;;8.70;85.75;99371.02;1733466;81;20992;-74
2021/11/08 00:25:33;;;;;;;19.67;16.20;;;;;;;8.68;85.56;99370.99;1778584;79;22100;-70
2021/11/08 00:28:00;;;;;;;22.35;19.27;;;;;;;8.65;85.64;99372.80;1756761;80;20970;-71
2021/11/08 00:30:30;;;;;;;26.95;19.85;;;;;;;8.64;85.76;99369.31;1774246;80;21547;-72
2021/11/08 00:32:55;;;;;;;23.83;19.17;;;;;;;8.61;85.81;99375.70;1737120;81;21038;-71
2021/11/08 00:35:21;;;;;;;21.35;17.90;;;;;;;8.63;86.00;99367.68;1751138;81;21030;-73
2021/11/08 00:37:49;;;;;;;20.88;17.23;;;;;;;8.68;85.93;99362.95;1739426;81;21310;-72
2021/11/08 00:40:15;;;;;;;24.07;19.12;;;;;;;8.69;85.80;99358.66;1727989;81;20975;-71
2021/11/08 00:42:41;;;;;;;22.10;18.62;;;;;;;8.68;85.71;99354.91;1732352;80;21551;-76
2021/11/08 00:45:09;;;;;;;22.58;18.87;;;;;;;8.62;85.76;99350.00;1738449;82;21540;-78
2021/11/08 00:47:36;;;;;;;24.63;19.07;;;;;;;8.56;85.94;99348.28;1710207;82;21019;-76
2021/11/08 00:50:04;;;;;;;27.02;19.45;;;;;;;8.55;86.12;99338.62;1705080;83;21046;-79
2021/11/08 00:52:33;;;;;;;26.35;19.55;;;;;;;8.60;86.16;99347.26;1729858;81;21511;-74
2021/11/08 00:55:00;;;;;;;22.85;19.40;;;;;;;8.60;86.16;99344.58;1757273;81;21057;-75
2021/11/08 00:57:31;;;;;;;21.57;19.25;;;;;;;8.63;86.23;99348.91;1749889;81;20992;-75
2021/11/08 00:59:55;;;;;;;26.10;18.87;;;;;;;8.68;86.12;99352.23;1718586;82;21087;-76
2021/11/08 01:02:25;;;;;;;21.12;16.57;;;;;;;8.69;85.94;99346.59;1751759;81;21951;-77
2021/11/08 01:04:50;;;;;;;23.62;18.20;;;;;;;8.70;85.83;99354.12;1724880;81;20962;-70
2021/11/08 01:07:18;;;;;;;26.10;19.95;;;;;;;8.69;85.79;99348.47;1724210;81;21060;-72
2021/11/08 01:09:45;;;;;;;24.32;17.57;;;;;;;8.73;85.85;99345.05;1724322;81;21051;-72
2021/11/08 01:12:12;;;;;;;29.82;19.07;;;;;;;8.78;85.72;99341.62;1726775;82;21031;-74
2021/11/08 01:14:40;;;;;;;23.02;18.30;;;;;;;8.82;85.56;99341.97;1742970;81;21126;-75
2021/11/08 01:17:08;;;;;;;22.25;19.00;;;;;;;8.85;85.42;99338.78;1743373;81;21050;-71
2021/11/08 01:19:34;;;;;;;23.00;19.12;;;;;;;8.86;85.25;99339.88;1715193;82;21610;-73
2021/11/08 01:22:06;;;;;;;27.02;21.05;;;;;;;8.84;85.07;99344.67;1793086;80;21057;-72
2021/11/08 01:24:44;;;;;;;23.75;19.42;;;;;;;8.83;85.09;99342.22;1786821;80;21039;-70
2021/11/08 01:27:06;;;;;;;24.32;18.65;;;;;;;8.82;84.98;99336.08;1766075;80;21359;-72
2021/11/08 01:29:33;;;;;;;23.38;19.27;;;;;;;8.84;85.01;99343.85;1765459;80;20940;-75
2021/11/08 01:32:04;;;;;;;19.98;17.23;;;;;;;8.87;85.03;99347.40;1767984;80;20942;-74
2021/11/08 01:34:30;;;;;;;26.40;18.42;;;;;;;8.86;84.86;99345.77;1767211;80;20915;-71
2021/11/08 01:37:00;;;;;;;24.05;18.98;;;;;;;8.85;84.85;99348.16;1766713;80;20956;-73
2021/11/08 01:39:34;;;;;;;23.85;18.67;;;;;;;8.86;84.76;99363.20;1767358;80;21225;-73
2021/11/08 01:42:06;;;;;;;22.05;18.48;;;;;;;8.86;84.72;99348.45;1788665;79;21656;-71
2021/11/08 01:44:34;;;;;;;23.62;18.23;;;;;;;8.83;84.70;99342.22;1795440;79;20971;-72
2021/11/08 01:47:01;;;;;;;24.55;18.70;;;;;;;8.79;84.71;99349.95;1794190;79;21523;-70
2021/11/08 01:49:29;;;;;;;22.90;18.87;;;;;;;8.79;84.82;99350.48;1768933;80;21023;-70
2021/11/08 01:51:57;;;;;;;24.77;18.70;;;;;;;8.79;84.89;99344.59;1768771;80;21268;-71
2021/11/08 01:54:24;;;;;;;26.82;18.85;;;;;;;8.83;84.96;99334.99;1768719;80;20970;-71
2021/11/08 01:56:54;;;;;;;33.23;19.67;;;;;;;8.87;84.82;99342.85;1769071;80;21022;-69
2021/11/08 01:59:23;;;;;;;26.95;19.82;;;;;;;8.88;84.60;99336.41;1795405;79;20985;-71
2021/11/08 02:01:51;;;;;;;23.35;19.37;;;;;;;8.90;84.57;99332.96;1769037;80;21598;-70
2021/11/08 02:04:18;;;;;;;26.77;19.17;;;;;;;8.88;84.45;99333.73;1771862;80;22001;-71
2021/11/08 02:06:46;;;;;;;26.50;19.23;;;;;;;8.87;84.39;99333.99;1795133;79;20982;-71
2021/11/08 02:09:13;;;;;;;31.90;19.50;;;;;;;8.82;84.38;99326.69;1793738;79;21050;-68
2021/11/08 02:11:40;;;;;;;23.85;19.00;;;;;;;8.80;84.42;99326.11;1791446;80;20997;-69
2021/11/08 02:14:06;;;;;;;25.00;19.87;;;;;;;8.79;84.50;99326.35;1700491;83;20996;-68
2021/11/08 02:16:34;;;;;;;24.72;19.32;;;;;;;8.76;84.53;99324.98;1735530;82;21102;-71
2021/11/08 02:19:04;;;;;;;26.80;19.17;;;;;;;8.78;84.61;99325.54;1734820;82;21023;-70
2021/11/08 02:21:30;;;;;;;26.42;22.00;;;;;;;8.78;84.49;99329.56;1707742;82;20948;-69
2021/11/08 02:23:57;;;;;;;25.40;18.98;;;;;;;8.79;84.46;99320.98;1735196;82;21480;-70
2021/11/08 02:26:24;;;;;;;23.67;19.62;;;;;;;8.78;84.34;99322.86;1715382;82;21502;-70
2021/11/08 02:28:52;;;;;;;28.87;19.92;;;;;;;8.75;84.29;99326.86;1747638;82;21062;-71
2021/11/08 02:31:22;;;;;;;31.30;20.37;;;;;;;8.71;84.26;99328.41;1794684;79;20913;-70
2021/11/08 02:33:52;;;;;;;28.35;18.30;;;;;;;8.66;84.33;99329.67;1766355;80;21122;-70
2021/11/08 02:36:24;;;;;;;26.60;19.95;;;;;;;8.63;84.47;99326.12;1795244;79;21474;-70
2021/11/08 02:38:53;;;;;;;31.05;20.48;;;;;;;8.62;84.60;99324.53;1798754;79;21039;-72
2021/11/08 02:41:19;;;;;;;26.73;20.08;;;;;;;8.63;84.62;99319.42;1796049;79;21301;-70
2021/11/08 02:43:46;;;;;;;26.85;20.35;;;;;;;8.64;84.55;99319.72;1793023;80;21019;-70
2021/11/08 02:46:17;;;;;;;23.05;18.35;;;;;;;8.63;84.55;99310.60;1795178;79;21015;-69
2021/11/08 02:48:46;;;;;;;27.13;19.70;;;;;;;8.59;84.56;99312.94;1795098;79;20983;-70
2021/11/08 02:51:26;;;;;;;27.52;19.85;;;;;;;8.52;84.58;99315.00;1766428;80;21014;-68
2021/11/08 02:54:00;;;;;;;31.37;20.50;;;;;;;8.48;84.76;99310.38;1793229;80;22352;-70
2021/11/08 02:56:23;;;;;;;24.20;20.00;;;;;;;8.44;84.92;99317.28;1782902;79;20983;-70
2021/11/08 02:58:50;;;;;;;31.23;21.00;;;;;;;8.42;85.15;99316.70;1742020;80;21018;-69
2021/11/08 03:01:21;;;;;;;33.35;21.30;;;;;;;8.44;85.21;99329.34;1728742;83;21036;-71
2021/11/08 03:03:52;;;;;;;30.08;22.13;;;;;;;8.45;85.10;99342.48;1699719;83;20991;-70
2021/11/08 03:08:44;;;;;;;28.45;19.35;;;;;;;8.41;85.00;99345.36;1741376;82;21016;-68
2021/11/08 03:11:12;;;;;;;32.20;23.47;;;;;;;8.36;85.00;99337.77;1747591;82;21000;-70
2021/11/08 03:13:40;;;;;;;29.32;21.50;;;;;;;8.27;85.11;99337.34;1718717;82;21010;-70
2021/11/08 03:16:54;;;;;;;35.80;20.62;;;;;;;8.26;85.28;99338.39;1697338;82;21092;-70
2021/11/08 03:18:41;;;;;;;30.35;21.73;;;;;;;8.29;85.39;99332.06;1731860;82;21463;-69
2021/11/08 03:21:14;;;;;;;25.57;20.32;;;;;;;8.33;85.42;99331.05;1747305;82;20985;-69
2021/11/08 03:23:35;;;;;;;26.48;20.72;;;;;;;8.37;85.31;99318.78;1746421;82;20984;-71
2021/11/08 03:26:31;;;;;;;28.17;21.27;;;;;;;8.38;85.08;99326.30;1744533;82;21059;-72
2021/11/08 03:28:44;;;;;;;37.93;21.52;;;;;;;8.37;85.03;99325.48;1723217;82;21023;-71
2021/11/08 03:31:12;;;;;;;36.15;24.60;;;;;;;8.37;84.90;99327.34;1710126;82;21158;-70
2021/11/08 03:33:39;;;;;;;42.17;23.90;;;;;;;8.35;84.79;99318.72;1710349;82;20995;-71
2021/11/08 03:36:07;;;;;;;36.90;24.40;;;;;;;8.31;84.66;99315.73;1716130;81;21021;-68
2021/11/08 03:38:37;;;;;;;29.30;23.35;;;;;;;8.27;84.76;99318.06;1729619;81;21083;-69
2021/11/08 03:41:02;;;;;;;25.10;20.65;;;;;;;8.30;84.84;99323.47;1721248;82;21013;-71
2021/11/08 03:43:28;;;;;;;33.20;21.12;;;;;;;8.30;84.71;99312.23;1768321;81;21786;-71
2021/11/08 03:45:56;;;;;;;26.12;20.30;;;;;;;8.28;84.66;99303.61;1759745;80;21575;-70
2021/11/08 03:48:22;;;;;;;30.50;20.20;;;;;;;8.23;84.48;99314.25;1760399;81;20994;-70
2021/11/08 03:50:49;;;;;;;22.95;18.62;;;;;;;8.17;84.59;99315.21;1758273;81;21005;-70
2021/11/08 03:53:15;;;;;;;28.65;17.98;;;;;;;8.12;84.66;99314.31;1727599;81;21046;-70
2021/11/08 03:55:43;;;;;;;26.10;20.88;;;;;;;8.06;84.71;99324.13;1755436;81;21894;-71
2021/11/08 03:58:10;;;;;;;26.97;19.20;;;;;;;8.03;84.83;99321.95;1709784;82;21033;-70
2021/11/08 04:00:36;;;;;;;28.02;20.77;;;;;;;7.99;84.96;99313.30;1735784;82;21055;-70
2021/11/08 04:03:03;;;;;;;27.35;18.80;;;;;;;8.02;85.09;99303.43;1720391;82;21064;-71
2021/11/08 04:05:34;;;;;;;25.70;18.48;;;;;;;8.05;85.08;99300.29;1746031;82;20984;-70
2021/11/08 04:08:04;;;;;;;26.40;19.37;;;;;;;8.07;84.94;99300.84;1735763;82;21143;-71
2021/11/08 04:10:32;;;;;;;20.55;16.55;;;;;;;8.06;84.89;99303.22;1735003;82;20916;-71
2021/11/08 04:13:04;;;;;;;23.15;18.23;;;;;;;8.06;84.71;99302.70;1791527;79;21516;-70
2021/11/08 04:15:32;;;;;;;23.27;18.27;;;;;;;8.01;84.57;99299.94;1790733;79;20995;-70
2021/11/08 04:17:56;;;;;;;21.82;17.20;;;;;;;7.98;84.54;99298.28;1790860;79;21023;-70
2021/11/08 04:20:23;;;;;;;20.95;15.93;;;;;;;7.92;84.60;99301.92;1791021;79;21228;-71
2021/11/08 04:22:53;;;;;;;25.52;16.85;;;;;;;7.89;84.73;99308.58;1769095;80;21500;-71
2021/11/08 04:25:23;;;;;;;24.70;17.62;;;;;;;7.87;84.76;99307.47;1768794;80;20960;-71
2021/11/08 04:27:51;;;;;;;22.58;15.63;;;;;;;7.86;84.77;99307.73;1791227;80;38763;-70
2021/11/08 04:30:18;;;;;;;26.73;16.87;;;;;;;7.85;84.74;99312.28;1768576;80;21015;-70
2021/11/08 04:32:51;;;;;;;21.35;15.90;;;;;;;7.76;84.75;99315.06;1769058;80;21028;-72
2021/11/08 04:35:17;;;;;;;22.50;17.23;;;;;;;7.73;84.89;99315.52;1789542;79;20999;-71
2021/11/08 04:43:09;;;;;;;23.75;17.00;;;;;;;7.68;85.20;99310.08;1772156;80;20958;-71
2021/11/08 04:45:46;;;;;;;22.05;16.42;;;;;;;7.68;85.14;99308.73;1789776;80;21059;-70
2021/11/08 04:48:25;;;;;;;18.75;15.63;;;;;;;7.66;85.11;99312.72;1755240;81;20956;-70
2021/11/08 04:53:18;;;;;;;20.88;14.60;;;;;;;7.63;85.17;99318.02;1743026;81;21000;-69
2021/11/08 04:58:57;;;;;;;25.37;16.95;;;;;;;7.62;85.19;99329.80;1723523;81;21129;-70
2021/11/08 05:25:32;;;;;;;20.52;15.98;;;;;;;7.54;85.33;99348.07;1734854;82;20972;-70
2021/11/08 05:30:21;;;;;;;21.60;15.43;;;;;;;7.52;85.28;99356.36;1725366;82;21040;-70
2021/11/08 05:32:52;;;;;;;20.35;16.10;;;;;;;7.55;85.31;99357.20;1740954;82;22002;-69
2021/11/08 05:35:19;;;;;;;16.73;13.53;;;;;;;7.56;85.22;99350.81;1731376;82;21066;-69
2021/11/08 05:37:46;;;;;;;18.80;15.58;;;;;;;7.57;85.11;99360.47;1736888;82;21106;-69
2021/11/08 05:40:27;;;;;;;16.95;13.50;;;;;;;7.59;85.06;99365.05;1711784;82;21040;-69
2021/11/08 05:42:51;;;;;;;19.17;15.28;;;;;;;7.58;84.92;99375.45;1717454;82;21509;-70
2021/11/08 05:45:17;;;;;;;16.73;13.93;;;;;;;7.56;84.91;99374.89;1711135;82;21509;-72
2021/11/08 05:47:44;;;;;;;19.35;14.58;;;;;;;7.56;84.96;99378.91;1737055;82;21492;-69
2021/11/08 05:50:13;;;;;;;20.77;14.68;;;;;;;7.57;84.90;99385.08;1736914;82;22071;-70
2021/11/08 05:52:40;;;;;;;17.65;14.23;;;;;;;7.57;84.91;99387.23;1741818;82;20932;-70
2021/11/08 05:55:10;;;;;;;22.13;15.28;;;;;;;7.60;84.84;99397.97;1712196;82;21488;-69
2021/11/08 06:49:44;;;;;;;18.80;13.85;;;;;;;7.99;83.29;99417.73;1757918;81;20961;-71
2021/11/08 06:52:13;;;;;;;19.90;13.30;;;;;;;8.02;82.99;99400.66;1710882;81;20989;-71
2021/11/08 06:54:39;;;;;;;19.70;16.32;;;;;;;8.03;82.93;99411.66;1755904;81;21051;-71
2021/11/08 06:57:16;;;;;;;20.45;14.38;;;;;;;8.07;82.78;99417.34;1739580;81;21046;-71
2021/11/08 06:59:34;;;;;;;16.75;13.53;;;;;;;8.10;82.72;99427.07;1705164;83;21094;-70
2021/11/08 07:02:01;;;;;;;18.02;15.23;;;;;;;8.16;82.52;99440.00;1745070;82;21040;-71
2021/11/08 07:04:27;;;;;;;16.85;13.08;;;;;;;8.22;82.26;99437.71;1739019;81;21487;-74
2021/11/08 07:06:53;;;;;;;18.67;13.58;;;;;;;8.26;81.81;99432.16;1753852;81;21152;-72
2021/11/08 07:09:20;;;;;;;16.57;12.63;;;;;;;8.27;81.57;99436.47;1746258;81;21894;-72
2021/11/08 07:11:47;;;;;;;15.25;13.32;;;;;;;8.26;81.42;99436.98;1709119;83;21472;-71
2021/11/08 07:14:13;;;;;;;15.30;13.38;;;;;;;8.27;81.28;99431.92;1755279;81;21018;-71
2021/11/08 07:16:44;;;;;;;18.07;13.45;;;;;;;8.27;81.29;99419.87;1732123;82;21050;-71
2021/11/08 07:19:09;;;;;;;17.77;13.80;;;;;;;8.33;81.24;99432.86;1739035;82;20991;-71
2021/11/08 07:21:35;;;;;;;18.32;14.23;;;;;;;8.37;81.09;99427.83;1745879;82;21106;-71
2021/11/08 07:24:01;;;;;;;18.92;13.35;;;;;;;8.42;80.90;99435.95;1707341;82;21014;-70
2021/11/08 07:26:28;;;;;;;17.70;13.75;;;;;;;8.43;80.80;99429.02;1716387;81;21081;-70
2021/11/08 07:28:54;;;;;;;15.85;11.75;;;;;;;8.44;80.65;99423.14;1774456;80;21494;-70
2021/11/08 07:31:20;;;;;;;17.02;13.45;;;;;;;8.43;80.52;99444.28;1766506;80;21060;-71
2021/11/08 07:33:47;;;;;;;20.25;14.13;;;;;;;8.45;80.57;99437.61;1793031;80;21963;-72
2021/11/08 07:36:13;;;;;;;19.70;13.30;;;;;;;8.45;80.45;99443.50;1790121;80;21039;-70
2021/11/08 07:38:40;;;;;;;17.17;14.03;;;;;;;8.47;80.52;99453.46;1767987;80;21058;-70
2021/11/08 07:41:09;;;;;;;18.40;13.22;;;;;;;8.49;80.37;99456.17;1748345;81;21482;-71
2021/11/08 07:43:37;;;;;;;15.70;13.05;;;;;;;8.53;80.11;99463.22;1702480;81;21067;-72
2021/11/08 07:46:04;;;;;;;17.15;12.63;;;;;;;8.52;80.00;99474.99;1732005;81;21090;-70
2021/11/08 07:48:30;;;;;;;13.83;11.97;;;;;;;8.53;79.85;99465.91;1712066;82;20936;-70
2021/11/08 07:50:58;;;;;;;15.68;13.00;;;;;;;8.53;79.68;99468.58;1701780;81;21019;-72
2021/11/08 07:53:25;;;;;;;18.10;12.60;;;;;;;8.52;79.71;99470.45;1748507;81;20967;-72
2021/11/08 07:55:51;;;;;;;18.75;14.60;;;;;;;8.54;79.64;99484.41;1754904;81;21049;-71
2021/11/08 07:58:19;;;;;;;17.05;13.28;;;;;;;8.53;79.75;99474.76;1748632;81;22305;-71
2021/11/08 08:00:45;;;;;;;18.95;14.18;;;;;;;8.54;79.81;99497.80;1751557;81;21004;-71
2021/11/08 08:03:12;;;;;;;15.63;13.18;;;;;;;8.55;79.75;99500.78;1728967;82;21074;-73
2021/11/08 08:05:39;;;;;;;19.32;14.58;;;;;;;8.56;79.70;99493.55;1789956;79;21028;-71
2021/11/08 08:08:06;;;;;;;16.37;12.78;;;;;;;8.56;79.71;99482.83;1795143;79;21000;-69
2021/11/08 08:10:32;;;;;;;16.97;14.87;;;;;;;8.59;79.59;99489.04;1795911;79;21137;-72
2021/11/08 08:13:00;;;;;;;16.12;13.48;;;;;;;8.61;79.53;99493.12;1704274;82;21063;-72
2021/11/08 08:15:26;;;;;;;15.70;12.40;;;;;;;8.62;79.55;99504.13;1728246;83;20974;-73
2021/11/08 08:17:52;;;;;;;18.57;14.38;;;;;;;8.66;79.42;99497.75;1735295;81;21606;-73
2021/11/08 08:20:20;;;;;;;17.67;13.32;;;;;;;8.69;79.41;99498.08;1753438;81;21040;-72
2021/11/08 08:22:47;;;;;;;17.32;12.70;;;;;;;8.73;79.32;99497.87;1746059;81;21248;-72
2021/11/08 08:25:13;;;;;;;17.60;13.13;;;;;;;8.78;79.16;99497.14;1748920;81;21563;-73
2021/11/08 08:27:40;;;;;;;15.18;11.97;;;;;;;8.84;79.10;99489.47;1734023;81;21146;-71
2021/11/08 08:30:08;;;;;;;17.15;13.85;;;;;;;8.92;78.90;99501.69;1759340;81;21051;-69
2021/11/08 08:32:35;;;;;;;16.48;13.05;;;;;;;8.97;78.54;99501.21;1735502;81;21090;-70
2021/11/08 08:35:01;;;;;;;18.23;12.98;;;;;;;9.02;78.47;99500.48;1759456;81;21092;-71
2021/11/08 08:37:30;;;;;;;15.78;12.68;;;;;;;9.08;78.17;99490.94;1735387;81;22138;-71
2021/11/08 08:39:57;;;;;;;14.93;10.23;;;;;;;9.14;77.91;99496.67;1759185;81;20939;-71
2021/11/08 08:42:24;;;;;;;15.28;10.90;;;;;;;9.26;77.27;99497.09;1733277;81;21020;-72
2021/11/08 08:44:51;;;;;;;18.60;11.48;;;;;;;9.27;76.01;99506.77;1754813;81;20995;-71
2021/11/08 08:47:17;;;;;;;17.80;11.68;;;;;;;9.34;75.66;99498.85;1733590;81;21001;-73
2021/11/08 08:49:44;;;;;;;17.75;10.93;;;;;;;9.38;75.13;99496.48;1754366;80;20927;-73
2021/11/08 08:52:10;;;;;;;12.88;9.73;;;;;;;9.43;75.16;99496.55;1748042;81;21100;-71
2021/11/08 08:54:38;;;;;;;12.93;10.25;;;;;;;9.47;74.89;99497.67;1755812;80;21178;-73
2021/11/08 08:57:09;;;;;;;15.35;9.25;;;;;;;9.51;74.49;99502.30;1780122;80;21024;-72
2021/11/08 08:59:36;;;;;;;10.88;8.98;;;;;;;9.54;74.13;99513.09;1756165;80;21102;-72
2021/11/08 09:02:03;;;;;;;15.88;9.80;;;;;;;9.56;73.61;99494.84;1756706;80;21014;-73
2021/11/08 09:04:30;;;;;;;12.35;9.95;;;;;;;9.58;73.71;99500.27;1762462;80;21036;-71
2021/11/08 09:06:57;;;;;;;15.48;9.03;;;;;;;9.64;73.68;99512.69;1734714;81;21498;-72
2021/11/08 09:09:25;;;;;;;19.25;11.30;;;;;;;9.68;73.49;99502.80;1758755;81;21016;-71
2021/11/08 09:11:53;;;;;;;11.85;9.80;;;;;;;9.70;73.23;99504.17;1727784;83;21845;-71
2021/11/08 09:14:19;;;;;;;13.15;9.15;;;;;;;9.69;72.67;99514.63;1726355;82;21556;-72
2021/11/08 09:16:45;;;;;;;12.95;9.83;;;;;;;9.67;72.82;99511.39;1725157;82;21156;-71
2021/11/08 09:19:13;;;;;;;13.70;10.43;;;;;;;9.66;73.00;99511.63;1743064;81;21100;-72
2021/11/08 09:21:40;;;;;;;13.68;10.18;;;;;;;9.67;73.09;99515.41;1727614;81;21503;-71
2021/11/08 09:24:07;;;;;;;13.50;10.23;;;;;;;9.71;73.04;99513.05;1744609;81;21193;-71
2021/11/08 09:26:35;;;;;;;15.15;10.00;;;;;;;9.74;72.58;99528.12;1768399;80;21043;-71
2021/11/08 09:29:02;;;;;;;15.23;9.33;;;;;;;9.73;72.34;99515.77;1795048;79;21373;-70
2021/11/08 09:31:28;;;;;;;9.30;8.40;;;;;;;9.70;71.95;99526.18;1768792;80;21499;-72
2021/11/08 09:34:03;;;;;;;10.55;8.93;;;;;;;9.69;72.23;99510.59;1769153;79;21531;-71
2021/11/08 09:36:24;;;;;;;9.55;7.62;;;;;;;9.70;72.24;99512.75;1794514;80;21142;-73
2021/11/08 09:38:54;;;;;;;9.03;7.92;;;;;;;9.71;72.41;99527.28;1795582;79;20935;-73
2021/11/08 09:41:19;;;;;;;13.60;9.18;;;;;;;9.71;71.73;99524.59;1752543;80;21080;-71
2021/11/08 09:43:45;;;;;;;10.13;8.03;;;;;;;9.69;71.82;99512.49;1730920;81;21043;-71
2021/11/08 09:46:12;;;;;;;13.78;10.15;;;;;;;9.68;72.01;99513.55;1761581;81;21057;-72
2021/11/08 09:48:40;;;;;;;11.33;9.23;;;;;;;9.68;71.79;99501.46;1735036;81;21211;-72
2021/11/08 09:51:13;;;;;;;9.93;8.55;;;;;;;9.67;71.46;99496.63;1734912;81;21019;-71
2021/11/08 09:53:40;;;;;;;11.85;8.65;;;;;;;9.69;71.46;99507.91;1735133;81;21520;-73
2021/11/08 09:56:07;;;;;;;11.03;9.28;;;;;;;9.72;71.61;99504.75;1734091;81;21064;-70
2021/11/08 09:58:33;;;;;;;8.95;8.03;;;;;;;9.77;71.80;99521.45;1766634;80;21038;-70
2021/11/08 10:01:04;;;;;;;10.98;9.25;;;;;;;9.77;71.48;99516.08;1793292;79;21066;-71
2021/11/08 10:03:33;;;;;;;8.23;7.35;;;;;;;9.77;71.25;99522.80;1757486;81;21084;-70
2021/11/08 10:06:00;;;;;;;10.72;9.00;;;;;;;9.73;71.01;99529.73;1761657;81;21063;-70
2021/11/08 10:08:33;;;;;;;7.87;6.85;;;;;;;9.70;71.07;99526.99;1735634;81;21504;-70
2021/11/08 10:11:05;;;;;;;9.10;7.45;;;;;;;9.69;70.84;99530.73;1762123;80;20912;-71
2021/11/08 10:13:32;;;;;;;8.35;6.95;;;;;;;9.72;70.46;99532.12;1776986;80;21081;-75
2021/11/08 10:16:02;;;;;;;9.15;6.55;;;;;;;9.76;70.24;99538.63;1768507;80;21002;-72
2021/11/08 10:18:29;;;;;;;8.10;6.92;;;;;;;9.81;70.30;99532.80;1795110;80;21491;-73
2021/11/08 10:21:07;;;;;;;6.70;6.03;;;;;;;9.88;70.01;99534.75;1796697;79;21044;-72
2021/11/08 10:23:35;;;;;;;9.60;6.87;;;;;;;9.93;69.48;99547.44;1782535;79;21098;-73
2021/11/08 10:26:06;;;;;;;9.95;7.37;;;;;;;9.97;68.72;99538.66;1782724;79;22095;-73
2021/11/08 10:28:32;;;;;;;7.47;6.45;;;;;;;10.02;68.31;99536.56;1774286;80;20961;-71
2021/11/08 10:31:12;;;;;;;7.15;6.08;;;;;;;10.05;67.72;99542.24;1793622;79;21066;-69
2021/11/08 10:33:39;;;;;;;8.98;7.42;;;;;;;10.04;67.35;99548.67;1766576;80;21136;-71
2021/11/08 10:36:15;;;;;;;8.55;6.28;;;;;;;10.04;67.15;99531.20;1793325;79;21465;-69
2021/11/08 10:38:44;;;;;;;8.93;6.05;;;;;;;10.06;66.98;99535.00;1791086;79;21469;-72
2021/11/08 10:41:17;;;;;;;6.97;5.70;;;;;;;10.12;66.50;99527.81;1797984;79;20961;-69
2021/11/08 10:43:51;;;;;;;8.80;5.90;;;;;;;10.16;66.51;99534.34;1795963;79;21016;-70
2021/11/08 10:46:27;;;;;;;8.95;6.05;;;;;;;10.18;65.82;99535.70;1792946;79;21163;-71
2021/11/08 10:48:57;;;;;;;6.83;6.00;;;;;;;10.17;65.16;99541.34;1761123;81;21554;-70
2021/11/08 10:51:26;;;;;;;8.00;6.55;;;;;;;10.16;65.53;99541.88;1736058;81;21045;-71
2021/11/08 10:54:03;;;;;;;5.90;4.95;;;;;;;10.14;64.60;99557.39;1768078;79;20887;-69
2021/11/08 10:56:37;;;;;;;8.23;5.83;;;;;;;10.11;64.34;99570.52;1787696;79;21552;-74
2021/11/08 10:59:11;;;;;;;6.35;5.12;;;;;;;10.04;64.24;99550.02;1791399;79;21012;-76
2021/11/08 11:01:57;;;;;;;6.28;4.40;;;;;;;10.04;64.69;99550.55;1768108;80;21094;-74
2021/11/08 11:04:36;;;;;;;6.75;4.87;;;;;;;10.04;64.13;99544.64;1764674;80;21576;-73
2021/11/08 11:07:03;;;;;;;8.38;5.75;;;;;;;10.05;63.39;99536.05;1761991;80;21572;-73
2021/11/08 11:09:34;;;;;;;9.40;4.65;;;;;;;10.06;63.52;99543.06;1761096;80;20976;-76
2021/11/08 11:12:14;;;;;;;9.83;4.30;;;;;;;10.07;62.29;99547.38;1789606;80;20959;-77
2021/11/08 11:14:47;;;;;;;6.15;4.03;;;;;;;10.07;62.39;99531.25;1788157;79;21142;-81
2021/11/08 11:17:28;;;;;;;5.28;3.85;;;;;;;10.09;62.19;99531.80;1720615;82;21031;-77
2021/11/08 11:20:20;;;;;;;6.50;4.33;;;;;;;10.10;62.32;99525.38;1726507;81;20966;-79
2021/11/08 11:23:03;;;;;;;8.68;5.00;;;;;;;10.11;61.66;99535.06;1742008;81;21109;-82
2021/11/08 11:25:29;;;;;;;6.30;4.60;;;;;;;10.11;61.60;99522.16;1745251;81;21082;-75
2021/11/08 11:28:00;;;;;;;4.62;3.98;;;;;;;10.11;61.10;99546.34;1707007;82;21167;-79
2021/11/08 11:30:37;;;;;;;5.58;4.05;;;;;;;10.10;60.81;99529.40;1741010;81;21823;-75
2021/11/08 11:33:11;;;;;;;7.47;4.80;;;;;;;10.10;60.86;99529.40;1718018;81;22282;-77
2021/11/08 11:35:55;;;;;;;5.90;3.80;;;;;;;10.11;60.99;99532.90;1714486;82;20915;-76
2021/11/08 11:38:26;;;;;;;8.07;4.73;;;;;;;10.10;60.54;99544.70;1723342;81;21019;-78
2021/11/08 11:41:03;;;;;;;4.83;4.00;;;;;;;10.09;60.39;99549.27;1714321;82;21355;-77
2021/11/08 11:43:43;;;;;;;5.47;4.12;;;;;;;10.09;60.37;99542.55;1742270;82;22053;-73
2021/11/08 11:46:21;;;;;;;7.95;4.08;;;;;;;10.08;60.41;99549.80;1741968;82;21027;-75
2021/11/08 11:48:50;;;;;;;8.95;4.17;;;;;;;10.06;60.23;99549.25;1728433;82;21080;-74
2021/11/08 11:51:20;;;;;;;6.15;3.87;;;;;;;10.07;60.18;99558.13;1728151;81;20976;-75
2021/11/08 11:53:46;;;;;;;8.55;3.87;;;;;;;10.05;60.31;99557.02;1760464;81;21099;-75
2021/11/08 11:56:15;;;;;;;5.12;4.08;;;;;;;10.07;60.46;99547.38;1761376;81;21003;-73
2021/11/08 11:58:44;;;;;;;7.80;3.85;;;;;;;10.07;60.00;99546.03;1728808;82;20971;-74
2021/11/08 12:01:13;;;;;;;5.03;4.08;;;;;;;10.07;59.74;99544.69;1739609;82;20967;-75
2021/11/08 12:03:39;;;;;;;7.80;3.75;;;;;;;10.07;59.23;99536.63;1720740;82;20948;-68
2021/11/08 12:06:08;;;;;;;6.08;3.50;;;;;;;10.05;58.75;99543.58;1715894;82;21035;-75
2021/11/08 12:08:39;;;;;;;8.13;3.85;;;;;;;10.04;58.27;99547.86;1715813;82;21044;-78
2021/11/08 12:11:07;;;;;;;3.75;3.02;;;;;;;10.04;58.46;99538.45;1751373;81;20931;-74
2021/11/08 12:13:40;;;;;;;5.12;3.30;;;;;;;10.02;58.41;99564.22;1734033;82;21044;-71
2021/11/08 12:16:16;;;;;;;5.47;3.47;;;;;;;10.02;57.93;99552.69;1792611;78;20998;-72
2021/11/08 12:18:45;;;;;;;7.20;3.87;;;;;;;10.02;58.09;99547.31;1769092;80;20998;-71
2021/11/08 12:21:26;;;;;;;4.17;3.52;;;;;;;10.02;58.07;99566.13;1793586;80;21167;-73
2021/11/08 12:23:55;;;;;;;5.65;3.42;;;;;;;10.02;57.50;99582.24;1768547;80;21547;-74
2021/11/08 12:26:25;;;;;;;5.53;3.12;;;;;;;10.01;57.37;99592.70;1793375;79;20919;-74
2021/11/08 12:28:52;;;;;;;5.75;3.40;;;;;;;10.00;56.82;99585.69;1764292;79;20983;-75
2021/11/08 12:31:23;;;;;;;5.30;2.95;;;;;;;9.97;57.02;99576.27;1762142;80;21042;-73
2021/11/08 12:34:06;;;;;;;3.58;3.10;;;;;;;9.98;57.14;99573.84;1762197;81;21700;-74
2021/11/08 12:36:32;;;;;;;7.28;4.00;;;;;;;9.99;56.63;99579.50;1761395;81;21014;-74
2021/11/08 12:39:06;;;;;;;5.62;3.15;;;;;;;9.98;56.38;99581.90;1789213;79;21044;-72
2021/11/08 12:41:44;;;;;;;7.87;3.40;;;;;;;9.99;56.45;99567.41;1788319;80;21039;-76
2021/11/08 12:44:08;;;;;;;8.33;3.95;;;;;;;9.99;56.35;99576.81;1772817;79;21003;-75
2021/11/08 12:46:39;;;;;;;5.05;2.58;;;;;;;9.97;56.18;99581.64;1712473;81;21528;-70
2021/11/08 12:49:17;;;;;;;7.47;3.15;;;;;;;9.96;55.82;99571.95;1760008;81;20940;-74
2021/11/08 12:51:57;;;;;;;5.33;2.90;;;;;;;9.98;55.69;99618.70;1735517;81;20991;-83
2021/11/08 12:54:28;;;;;;;3.37;2.42;;;;;;;9.98;55.40;99598.55;1755869;80;20982;-80
2021/11/08 12:57:11;;;;;;;3.20;2.65;;;;;;;9.98;55.76;99596.68;1792786;80;20998;-82
2021/11/08 12:59:44;;;;;;;;;;;;;;;10.00;55.86;99593.75;1740941;81;21057;-76
2021/11/08 13:02:26;;;;;;;5.40;2.37;;;;;;;10.00;55.89;99602.63;1750876;79;20125;-78
2021/11/08 13:04:58;;;;;;;11.18;4.42;;;;;;;10.00;55.74;99593.23;1795320;79;21046;-73
2021/11/08 13:07:28;;;;;;;3.85;2.70;;;;;;;10.00;55.67;99588.38;1793353;80;27554;-73
2021/11/08 13:09:56;;;;;;;8.03;2.70;;;;;;;10.01;55.70;99628.44;1768637;80;21527;-72